Time;durP1;ratioP1;P1;durP2;ratioP2;P2;SDS_P1;SDS_P2;PMS_P1;PMS_P2;Temp;Humidity;BMP_temperature;BMP_pressure;BME280_temperature;BME280_humidity;BME280_pressure;Samples;Min_cycle;Max_cycle;Signal;HPM_P1;HPM_P2
2022/03/25 00:01:10;;;;;;;23.73;17.60;;;;;;;3.68;60.33;100371.22;4913170;29;20273;-80
2022/03/25 00:03:37;;;;;;;24.03;17.33;;;;;;;3.66;60.59;100375.81;4912176;29;20238;-80
2022/03/25 00:06:04;;;;;;;21.13;17.20;;;;;;;3.62;60.52;100381.59;4913680;29;20234;-80
2022/03/25 00:08:31;;;;;;;24.13;17.60;;;;;;;3.59;60.33;100385.41;4908343;29;20307;-80
2022/03/25 00:10:58;;;;;;;24.77;17.17;;;;;;;3.57;60.29;100383.88;4907155;29;20995;-80
2022/03/25 00:13:25;;;;;;;23.47;17.53;;;;;;;3.57;60.86;100382.06;4910614;29;20238;-80
2022/03/25 00:15:52;;;;;;;22.10;17.57;;;;;;;3.50;61.07;100384.50;4910368;29;20248;-80
2022/03/25 00:18:19;;;;;;;24.10;17.27;;;;;;;3.52;60.74;100381.69;4905764;29;20242;-80
2022/03/25 00:20:45;;;;;;;23.50;17.43;;;;;;;3.44;61.57;100379.00;4914948;29;20245;-80
2022/03/25 00:23:12;;;;;;;22.47;16.93;;;;;;;3.40;61.73;100385.59;4910770;29;20262;-81
2022/03/25 00:25:39;;;;;;;25.70;16.60;;;;;;;3.37;61.24;100381.44;4906733;29;20353;-80
2022/03/25 00:28:06;;;;;;;24.33;17.03;;;;;;;3.33;61.19;100377.44;4911395;29;20275;-79
2022/03/25 00:30:34;;;;;;;24.33;17.67;;;;;;;3.31;61.10;100374.09;4907586;29;20299;-79
2022/03/25 00:33:00;;;;;;;21.20;16.73;;;;;;;3.29;61.54;100375.25;4908174;29;20321;-80
2022/03/25 00:35:27;;;;;;;21.57;16.50;;;;;;;3.26;61.98;100370.28;4906194;29;20238;-80
2022/03/25 00:37:54;;;;;;;22.63;16.50;;;;;;;3.23;61.86;100370.56;4911466;29;20699;-80
2022/03/25 00:40:21;;;;;;;24.53;16.47;;;;;;;3.19;62.33;100371.88;4912041;29;21282;-78
2022/03/25 00:42:48;;;;;;;22.50;16.33;;;;;;;3.09;62.39;100361.38;4915354;29;20238;-78
2022/03/25 00:45:14;;;;;;;21.40;15.43;;;;;;;3.05;62.60;100360.84;4909642;29;20246;-80
2022/03/25 00:47:42;;;;;;;22.47;15.77;;;;;;;2.99;62.93;100365.91;4909321;29;20247;-80
2022/03/25 00:50:10;;;;;;;21.67;15.90;;;;;;;2.94;63.91;100362.91;4909896;29;20270;-80
2022/03/25 00:52:37;;;;;;;21.73;15.53;;;;;;;2.87;64.04;100357.38;4910575;29;20638;-80
2022/03/25 00:55:06;;;;;;;21.30;15.37;;;;;;;2.90;63.85;100358.88;4910137;29;20231;-80
2022/03/25 00:57:33;;;;;;;20.17;14.33;;;;;;;2.87;64.18;100367.16;4907209;29;20234;-80
2022/03/25 01:00:00;;;;;;;22.90;15.93;;;;;;;2.78;64.97;100360.94;4907572;29;20237;-80
2022/03/25 01:02:27;;;;;;;19.17;14.67;;;;;;;2.75;65.27;100357.78;4906146;29;20274;-80
2022/03/25 01:04:55;;;;;;;18.93;14.80;;;;;;;2.70;65.30;100363.53;4905555;29;20230;-80
2022/03/25 01:07:22;;;;;;;17.77;13.93;;;;;;;2.66;65.55;100360.34;4902510;29;20227;-80
2022/03/25 01:09:48;;;;;;;17.83;14.43;;;;;;;2.61;65.91;100359.94;4913873;29;20238;-80
2022/03/25 01:12:15;;;;;;;18.33;14.27;;;;;;;2.58;66.33;100349.69;4909841;29;20237;-80
2022/03/25 01:14:42;;;;;;;17.37;13.40;;;;;;;2.58;66.12;100352.31;4909708;29;20250;-80
2022/03/25 01:17:14;;;;;;;19.50;14.13;;;;;;;2.59;66.31;100356.66;4909284;29;20234;-80
2022/03/25 01:19:43;;;;;;;17.27;13.47;;;;;;;2.57;66.33;100355.13;4905566;29;20719;-80
2022/03/25 01:22:10;;;;;;;18.23;12.97;;;;;;;2.55;66.76;100357.94;4910653;29;20230;-80
2022/03/25 01:24:36;;;;;;;17.70;13.47;;;;;;;2.53;67.28;100365.16;4907613;29;20226;-80
2022/03/25 01:27:04;;;;;;;16.80;12.67;;;;;;;2.51;66.99;100366.31;4900446;29;20608;-80
2022/03/25 01:29:30;;;;;;;17.30;13.30;;;;;;;2.44;66.82;100363.44;4905398;29;20715;-79
2022/03/25 01:31:59;;;;;;;17.00;13.43;;;;;;;2.40;67.44;100366.53;4910958;29;20643;-79
2022/03/25 01:34:26;;;;;;;17.77;13.47;;;;;;;2.35;67.48;100366.13;4906883;29;20238;-80
2022/03/25 01:36:53;;;;;;;17.47;13.07;;;;;;;2.31;67.67;100364.78;4909674;29;20233;-77
2022/03/25 01:39:20;;;;;;;18.63;13.90;;;;;;;2.29;68.62;100362.25;4905459;29;20239;-77
2022/03/25 01:41:49;;;;;;;17.40;12.90;;;;;;;2.26;68.77;100361.75;4908677;29;20301;-77
2022/03/25 01:44:27;;;;;;;16.13;12.77;;;;;;;2.20;68.82;100363.16;4908899;29;20234;-77
2022/03/25 01:46:57;;;;;;;20.17;13.53;;;;;;;2.12;69.42;100369.19;4897502;29;20293;-77
2022/03/25 01:49:24;;;;;;;17.63;13.50;;;;;;;2.11;69.67;100369.34;4909289;29;20234;-77
2022/03/25 01:51:53;;;;;;;18.60;13.60;;;;;;;2.06;70.45;100369.78;4909134;29;20626;-78
2022/03/25 01:54:28;;;;;;;22.10;13.37;;;;;;;2.01;70.32;100369.38;4912536;29;20295;-79
2022/03/25 01:57:05;;;;;;;17.80;13.27;;;;;;;1.98;70.80;100367.03;4887609;29;20251;-78
2022/03/25 01:59:33;;;;;;;16.17;12.80;;;;;;;1.96;71.22;100365.53;4907246;29;20245;-78
2022/03/25 02:02:02;;;;;;;16.10;12.90;;;;;;;1.94;71.33;100372.78;4914676;29;20277;-77
2022/03/25 02:04:30;;;;;;;16.50;13.17;;;;;;;1.92;71.29;100372.91;4909819;29;20238;-77
2022/03/25 02:06:57;;;;;;;18.03;13.53;;;;;;;1.89;70.97;100373.22;4914079;29;20250;-77
2022/03/25 02:09:27;;;;;;;15.77;12.77;;;;;;;1.83;71.83;100372.94;4906985;29;20234;-78
2022/03/25 02:11:55;;;;;;;16.83;13.33;;;;;;;1.81;71.74;100372.28;4913595;29;20234;-77
2022/03/25 02:14:23;;;;;;;16.60;13.57;;;;;;;1.76;72.10;100362.16;4909040;29;20234;-77
2022/03/25 02:16:51;;;;;;;18.97;13.77;;;;;;;1.74;72.13;100364.09;4904932;29;20317;-77
2022/03/25 02:19:18;;;;;;;16.47;12.77;;;;;;;1.75;72.77;100368.41;4892614;29;20234;-77
2022/03/25 02:21:49;;;;;;;18.93;13.23;;;;;;;1.70;73.07;100363.56;4909276;29;20236;-77
2022/03/25 02:24:21;;;;;;;16.53;13.10;;;;;;;1.68;73.25;100367.31;4904884;29;20253;-80
2022/03/25 02:26:49;;;;;;;18.13;13.33;;;;;;;1.64;73.48;100371.22;4910325;29;20267;-79
2022/03/25 02:29:16;;;;;;;16.07;12.83;;;;;;;1.61;74.33;100372.34;4918167;29;20261;-80
2022/03/25 02:31:43;;;;;;;15.70;12.67;;;;;;;1.58;74.09;100364.72;4913599;29;20266;-79
2022/03/25 02:34:10;;;;;;;17.20;12.50;;;;;;;1.54;74.28;100367.78;4910575;29;20246;-77
2022/03/25 02:36:43;;;;;;;17.17;12.87;;;;;;;1.52;73.95;100369.72;4904935;29;20242;-77
2022/03/25 02:39:11;;;;;;;17.27;13.47;;;;;;;1.47;74.46;100369.31;4899191;29;21011;-77
2022/03/25 02:41:39;;;;;;;17.13;12.60;;;;;;;1.42;75.16;100369.75;4894920;29;20248;-78
2022/03/25 02:44:06;;;;;;;16.83;13.20;;;;;;;1.43;75.41;100375.88;4893798;29;20264;-77
2022/03/25 02:46:34;;;;;;;16.27;13.13;;;;;;;1.38;75.94;100367.53;4908664;29;20264;-77
2022/03/25 02:49:01;;;;;;;18.70;14.03;;;;;;;1.32;76.52;100371.59;4905386;29;20241;-78
2022/03/25 02:51:28;;;;;;;16.90;12.63;;;;;;;1.30;77.06;100374.38;4904311;29;20235;-77
2022/03/25 02:53:56;;;;;;;15.97;12.47;;;;;;;1.25;77.45;100366.06;4908519;29;20254;-77
2022/03/25 02:56:24;;;;;;;16.93;12.30;;;;;;;1.24;77.41;100374.94;4908591;29;20652;-78
2022/03/25 02:58:51;;;;;;;16.30;12.57;;;;;;;1.19;77.65;100371.06;4908214;29;20272;-77
2022/03/25 03:01:19;;;;;;;16.67;12.93;;;;;;;1.14;78.00;100368.00;4906250;29;20235;-78
2022/03/25 03:03:46;;;;;;;17.63;12.70;;;;;;;1.10;78.52;100369.28;4893078;29;20231;-77
2022/03/25 03:06:13;;;;;;;17.63;13.27;;;;;;;1.05;78.68;100369.69;4908318;29;20238;-77
2022/03/25 03:08:41;;;;;;;15.53;12.57;;;;;;;1.01;78.41;100364.84;4906477;29;20349;-78
2022/03/25 03:11:08;;;;;;;17.23;12.90;;;;;;;0.95;79.73;100371.50;4907129;29;20242;-78
2022/03/25 03:13:35;;;;;;;16.67;13.17;;;;;;;0.90;81.05;100365.81;4911612;29;20361;-79
2022/03/25 03:16:02;;;;;;;18.70;12.63;;;;;;;0.87;81.06;100366.94;4912096;29;20269;-78
2022/03/25 03:18:29;;;;;;;19.13;12.90;;;;;;;0.83;80.94;100373.47;4910777;29;20240;-78
2022/03/25 03:20:56;;;;;;;16.23;12.80;;;;;;;0.79;80.90;100374.69;4901672;29;20773;-79
2022/03/25 03:23:22;;;;;;;18.03;12.57;;;;;;;0.78;81.23;100369.56;4907780;29;20313;-77
2022/03/25 03:25:49;;;;;;;16.77;12.73;;;;;;;0.73;81.44;100367.34;4910628;29;20253;-77
2022/03/25 03:28:16;;;;;;;17.10;12.90;;;;;;;0.76;82.01;100368.88;4911520;29;20325;-78
2022/03/25 03:30:43;;;;;;;15.67;12.53;;;;;;;0.72;81.91;100364.84;4910254;29;20601;-77
2022/03/25 03:33:10;;;;;;;17.30;12.57;;;;;;;0.71;82.22;100364.00;4910455;29;20345;-77
2022/03/25 03:35:37;;;;;;;14.70;12.63;;;;;;;0.70;82.64;100366.81;4909644;29;20246;-78
2022/03/25 03:38:04;;;;;;;17.93;12.83;;;;;;;0.66;83.18;100366.22;4913439;29;20321;-77
2022/03/25 03:40:32;;;;;;;19.93;12.57;;;;;;;0.67;83.53;100361.78;4903340;29;20683;-77
2022/03/25 03:42:59;;;;;;;18.50;13.07;;;;;;;0.66;84.00;100365.38;4908468;29;20241;-78
2022/03/25 03:45:26;;;;;;;17.30;12.30;;;;;;;0.67;84.20;100367.91;4908392;29;20231;-77
2022/03/25 03:47:53;;;;;;;15.20;12.27;;;;;;;0.66;84.49;100365.38;4910938;29;20261;-79
2022/03/25 03:50:20;;;;;;;16.33;12.97;;;;;;;0.64;84.49;100367.34;4911706;29;20420;-78
2022/03/25 03:52:47;;;;;;;16.10;12.87;;;;;;;0.60;84.84;100364.16;4917954;29;20238;-78
2022/03/25 03:55:14;;;;;;;19.07;12.50;;;;;;;0.57;84.19;100363.59;4906454;29;20252;-79
2022/03/25 03:57:42;;;;;;;17.53;12.30;;;;;;;0.54;84.06;100364.72;4917060;29;20246;-79
2022/03/25 04:00:11;;;;;;;16.07;12.43;;;;;;;0.52;84.61;100376.34;4917355;29;20980;-80
2022/03/25 04:02:44;;;;;;;15.00;11.87;;;;;;;0.53;84.44;100375.38;4914195;29;20246;-79
2022/03/25 04:05:12;;;;;;;19.20;11.93;;;;;;;0.52;84.34;100368.44;4913000;29;20239;-79
2022/03/25 04:07:46;;;;;;;17.33;12.80;;;;;;;0.47;84.00;100368.84;4910689;29;20243;-80
2022/03/25 04:10:15;;;;;;;15.93;11.83;;;;;;;0.41;84.06;100370.25;4912297;29;20268;-80
2022/03/25 04:12:42;;;;;;;15.30;12.50;;;;;;;0.38;84.83;100375.78;4910693;29;20250;-79
2022/03/25 04:15:10;;;;;;;17.17;12.60;;;;;;;0.36;85.06;100366.34;4917453;29;20314;-79
2022/03/25 04:17:41;;;;;;;16.70;13.40;;;;;;;0.33;85.55;100367.44;4900342;29;20328;-80
2022/03/25 04:20:10;;;;;;;18.23;12.97;;;;;;;0.31;85.55;100366.75;4909277;29;20320;-77
2022/03/25 04:22:37;;;;;;;17.93;12.57;;;;;;;0.34;86.03;100365.66;4913207;29;20321;-78
2022/03/25 04:25:07;;;;;;;18.73;12.67;;;;;;;0.33;85.83;100366.59;4913989;29;20873;-78
2022/03/25 04:27:54;;;;;;;20.37;12.83;;;;;;;0.36;86.57;100369.81;4915300;29;20252;-78
2022/03/25 04:30:29;;;;;;;14.73;12.37;;;;;;;0.32;86.15;100372.88;4914768;29;20311;-78
2022/03/25 04:32:57;;;;;;;16.03;12.40;;;;;;;0.30;85.78;100370.38;4914011;29;20313;-78
2022/03/25 04:35:25;;;;;;;15.87;12.70;;;;;;;0.26;86.50;100376.03;4918231;29;20301;-78
2022/03/25 04:37:53;;;;;;;16.60;12.57;;;;;;;0.24;88.22;100376.16;4914320;29;20267;-78
2022/03/25 04:40:22;;;;;;;18.37;12.37;;;;;;;0.22;88.37;100370.22;4913482;29;20895;-78
2022/03/25 04:42:51;;;;;;;15.60;12.23;;;;;;;0.22;88.98;100374.66;4902108;29;20277;-78
2022/03/25 04:45:19;;;;;;;16.60;12.27;;;;;;;0.17;89.63;100374.22;4909148;29;20770;-78
2022/03/25 04:47:46;;;;;;;17.33;12.50;;;;;;;0.17;91.21;100366.31;4908106;29;20309;-78
2022/03/25 04:50:13;;;;;;;17.63;13.00;;;;;;;0.15;91.07;100373.50;4910712;29;20248;-78
2022/03/25 04:52:40;;;;;;;16.27;12.93;;;;;;;0.10;91.85;100370.44;4907533;29;20321;-78
2022/03/25 04:55:11;;;;;;;17.67;12.97;;;;;;;0.09;91.60;100369.63;4902753;29;20237;-78
2022/03/25 04:57:39;;;;;;;16.93;12.97;;;;;;;0.08;92.81;100375.88;4907128;29;20321;-78
2022/03/25 05:00:07;;;;;;;16.77;12.33;;;;;;;0.14;92.46;100377.94;4910247;29;20238;-78
2022/03/25 05:02:34;;;;;;;18.03;12.23;;;;;;;0.14;92.78;100382.41;4908567;29;20325;-78
2022/03/25 05:05:01;;;;;;;19.53;13.40;;;;;;;0.19;92.78;100385.44;4908735;29;20321;-78
2022/03/25 05:07:28;;;;;;;17.47;13.60;;;;;;;0.20;91.56;100380.03;4911190;29;20234;-77
2022/03/25 05:09:59;;;;;;;18.80;12.83;;;;;;;0.24;92.93;100386.72;4913391;29;20239;-78
2022/03/25 05:12:26;;;;;;;17.67;13.10;;;;;;;0.25;94.40;100382.28;4906253;29;20713;-78
2022/03/25 05:14:53;;;;;;;22.00;14.17;;;;;;;0.30;98.18;100393.25;4904811;29;20243;-78
2022/03/25 05:17:20;;;;;;;17.23;12.97;;;;;;;0.36;95.60;100401.47;4903768;29;20736;-78
2022/03/25 05:19:47;;;;;;;18.47;13.53;;;;;;;0.40;96.36;100392.31;4907969;29;20349;-78
2022/03/25 05:22:14;;;;;;;18.43;12.77;;;;;;;0.45;96.95;100394.53;4910788;29;20274;-78
2022/03/25 05:24:41;;;;;;;17.50;13.87;;;;;;;0.53;96.16;100402.59;4908227;29;20333;-78
2022/03/25 05:27:08;;;;;;;16.50;12.63;;;;;;;0.62;95.36;100403.56;4911579;29;20240;-78
2022/03/25 05:29:35;;;;;;;22.57;15.60;;;;;;;0.69;96.83;100396.78;4907120;29;20313;-78
2022/03/25 05:32:01;;;;;;;18.77;14.70;;;;;;;0.81;94.76;100400.94;4905129;29;20644;-78
2022/03/25 05:34:28;;;;;;;23.73;16.10;;;;;;;0.94;92.64;100408.56;4908972;29;20324;-78
2022/03/25 05:36:55;;;;;;;25.80;17.27;;;;;;;1.07;92.04;100409.16;4908812;29;20699;-78
2022/03/25 05:39:21;;;;;;;24.83;16.50;;;;;;;1.21;89.92;100409.53;4897431;29;20317;-78
2022/03/25 05:41:48;;;;;;;23.67;16.13;;;;;;;1.38;88.41;100415.91;4903564;29;20740;-77
2022/03/25 05:44:15;;;;;;;26.50;18.33;;;;;;;1.52;86.71;100412.00;4903632;29;20321;-78
2022/03/25 05:46:43;;;;;;;25.57;19.33;;;;;;;1.65;84.96;100412.50;4910117;29;20230;-78
2022/03/25 05:49:10;;;;;;;29.17;19.60;;;;;;;1.80;83.63;100418.16;4910101;29;20238;-78
2022/03/25 05:51:37;;;;;;;24.77;19.23;;;;;;;1.97;82.00;100422.69;4908993;29;20710;-78
2022/03/25 05:54:03;;;;;;;24.97;17.87;;;;;;;2.12;80.09;100414.13;4908902;29;20242;-78
2022/03/25 05:56:31;;;;;;;23.77;16.93;;;;;;;2.28;79.42;100425.91;4906153;29;20249;-78
2022/03/25 05:58:58;;;;;;;23.37;17.20;;;;;;;2.45;77.88;100425.09;4908703;29;20617;-78
2022/03/25 06:01:25;;;;;;;22.47;15.47;;;;;;;2.62;77.16;100433.06;4910328;29;20296;-77
2022/03/25 06:03:51;;;;;;;18.57;13.83;;;;;;;2.78;75.37;100432.41;4904020;29;20239;-78
2022/03/25 06:06:19;;;;;;;18.13;13.37;;;;;;;2.95;72.94;100422.78;4903469;29;20317;-78
2022/03/25 06:08:49;;;;;;;19.07;12.97;;;;;;;3.09;71.52;100433.69;4906033;29;20317;-78
2022/03/25 06:11:16;;;;;;;18.00;12.47;;;;;;;3.27;69.74;100427.53;4905377;29;20245;-78
2022/03/25 06:13:43;;;;;;;15.97;12.53;;;;;;;3.45;67.76;100429.16;4911415;29;20237;-78
2022/03/25 06:16:10;;;;;;;16.00;11.67;;;;;;;3.62;66.20;100422.19;4910639;29;20237;-78
2022/03/25 06:18:36;;;;;;;14.33;11.57;;;;;;;3.82;65.59;100428.09;4906350;29;20695;-77
2022/03/25 06:21:04;;;;;;;18.07;11.97;;;;;;;4.03;64.55;100440.97;4904546;29;20273;-75
2022/03/25 06:23:30;;;;;;;17.67;11.97;;;;;;;4.21;62.91;100436.41;4912278;29;20238;-76
2022/03/25 06:25:58;;;;;;;15.13;11.80;;;;;;;4.37;61.89;100433.84;4907372;29;20307;-77
2022/03/25 06:28:25;;;;;;;17.27;11.37;;;;;;;4.55;60.38;100429.25;4905080;29;20316;-76
2022/03/25 06:30:52;;;;;;;17.67;11.13;;;;;;;4.70;59.96;100432.94;4906921;29;20758;-76
2022/03/25 06:33:19;;;;;;;14.60;11.93;;;;;;;4.86;60.26;100440.94;4903098;29;20239;-75
2022/03/25 06:35:46;;;;;;;17.67;12.20;;;;;;;5.00;58.94;100449.25;4906403;29;20242;-76
2022/03/25 06:38:13;;;;;;;16.17;12.60;;;;;;;5.18;58.11;100440.13;4908693;29;20352;-78
2022/03/25 06:40:40;;;;;;;15.43;12.20;;;;;;;5.36;57.10;100442.66;4906951;29;20242;-78
2022/03/25 06:43:06;;;;;;;17.93;12.33;;;;;;;5.56;56.03;100443.13;4904789;29;20266;-78
2022/03/25 06:45:34;;;;;;;19.67;12.40;;;;;;;5.70;54.92;100443.28;4901060;29;20691;-78
2022/03/25 06:48:01;;;;;;;16.57;12.43;;;;;;;5.86;54.39;100449.56;4910438;29;20234;-77
2022/03/25 06:50:29;;;;;;;21.43;13.40;;;;;;;6.05;53.59;100450.06;4908456;29;20241;-79
2022/03/25 06:52:57;;;;;;;17.90;13.07;;;;;;;6.22;52.67;100452.66;4907683;29;20322;-78
2022/03/25 06:55:24;;;;;;;19.47;13.53;;;;;;;6.37;52.32;100450.94;4905672;29;20329;-78
2022/03/25 06:57:51;;;;;;;17.80;12.97;;;;;;;6.56;52.49;100456.69;4899114;29;20330;-79
2022/03/25 07:00:19;;;;;;;19.47;13.60;;;;;;;6.70;51.54;100457.78;4904907;29;20642;-79
2022/03/25 07:02:47;;;;;;;16.97;13.17;;;;;;;6.85;50.89;100452.56;4910121;29;20242;-79
2022/03/25 07:05:14;;;;;;;19.87;13.83;;;;;;;7.05;49.96;100454.56;4912543;29;20244;-76
2022/03/25 07:07:42;;;;;;;16.87;12.83;;;;;;;7.20;50.19;100451.97;4914503;29;20244;-76
2022/03/25 07:10:11;;;;;;;19.73;13.40;;;;;;;7.37;49.42;100450.03;4911013;29;20238;-77
2022/03/25 07:12:39;;;;;;;19.30;13.67;;;;;;;7.52;48.85;100457.03;4910965;29;20285;-76
2022/03/25 07:15:07;;;;;;;21.03;13.93;;;;;;;7.69;48.78;100459.56;4910887;29;20325;-76
2022/03/25 07:17:37;;;;;;;20.07;13.97;;;;;;;7.84;47.92;100458.56;4912257;29;20298;-75
2022/03/25 07:20:05;;;;;;;17.33;13.50;;;;;;;7.95;46.40;100457.31;4906940;29;20239;-76
2022/03/25 07:22:33;;;;;;;18.90;14.43;;;;;;;8.14;46.72;100455.94;4912945;29;20238;-76
2022/03/25 07:25:00;;;;;;;19.87;13.97;;;;;;;8.32;46.54;100467.09;4904117;29;20299;-76
2022/03/25 07:27:27;;;;;;;18.77;13.93;;;;;;;8.50;44.83;100464.88;4905860;29;20267;-76
2022/03/25 07:29:53;;;;;;;22.07;14.67;;;;;;;8.62;44.50;100466.09;4894586;29;20306;-76
2022/03/25 07:32:20;;;;;;;21.73;13.73;;;;;;;8.65;44.82;100460.34;4894470;29;20257;-77
2022/03/25 07:34:47;;;;;;;18.47;14.43;;;;;;;8.83;44.33;100459.94;4894999;29;20325;-79
2022/03/25 07:37:14;;;;;;;20.90;15.10;;;;;;;9.02;44.47;100467.34;4888290;29;20609;-78
2022/03/25 07:39:42;;;;;;;17.70;14.03;;;;;;;9.18;44.39;100461.78;4892995;29;20258;-79
2022/03/25 07:42:08;;;;;;;22.73;15.33;;;;;;;9.38;43.13;100474.53;4911172;29;20330;-79
2022/03/25 07:44:37;;;;;;;19.63;14.03;;;;;;;9.56;43.46;100464.19;4912548;29;20246;-79
2022/03/25 07:47:04;;;;;;;21.90;13.60;;;;;;;9.71;43.11;100464.91;4913710;29;20269;-79
2022/03/25 07:49:30;;;;;;;23.17;15.13;;;;;;;9.76;42.37;100470.53;4893551;29;20634;-79
2022/03/25 07:51:57;;;;;;;22.60;15.37;;;;;;;9.77;41.75;100466.81;4895969;29;20227;-78
2022/03/25 07:54:24;;;;;;;23.43;15.37;;;;;;;9.85;41.87;100469.34;4899379;29;20364;-79
2022/03/25 07:56:51;;;;;;;28.63;16.00;;;;;;;10.07;42.41;100472.81;4899973;29;20572;-79
2022/03/25 07:59:17;;;;;;;27.17;15.23;;;;;;;10.24;42.11;100470.69;4911158;29;20321;-79
2022/03/25 08:01:44;;;;;;;26.00;16.20;;;;;;;10.13;41.69;100474.69;4912620;29;20238;-79
2022/03/25 08:04:11;;;;;;;23.23;15.90;;;;;;;10.32;41.82;100470.50;4912666;29;20589;-79
2022/03/25 08:06:38;;;;;;;23.10;15.53;;;;;;;10.53;41.72;100465.09;4908018;29;20730;-79
2022/03/25 08:09:05;;;;;;;24.23;16.10;;;;;;;10.88;40.19;100474.69;4903297;29;20265;-79
2022/03/25 08:11:31;;;;;;;20.87;16.23;;;;;;;10.89;39.32;100465.63;4910281;29;20282;-79
2022/03/25 08:13:58;;;;;;;21.97;15.87;;;;;;;10.95;39.77;100464.00;4908445;29;20238;-79
2022/03/25 08:16:25;;;;;;;22.10;15.27;;;;;;;11.12;39.40;100467.13;4911136;29;20234;-78
2022/03/25 08:18:52;;;;;;;22.37;15.47;;;;;;;11.27;38.90;100474.00;4901314;29;20246;-78
2022/03/25 08:21:19;;;;;;;25.27;16.00;;;;;;;11.28;38.88;100458.72;4908298;29;20589;-79
2022/03/25 08:29:17;;;;;;;26.27;16.60;;;;;;;11.66;38.71;100456.28;4903263;29;20248;-78
2022/03/25 08:31:45;;;;;;;26.13;16.30;;;;;;;11.68;38.97;100459.56;4910610;29;20258;-78
2022/03/25 08:34:16;;;;;;;24.57;16.87;;;;;;;11.86;38.77;100465.16;4909359;29;20249;-79
2022/03/25 08:36:45;;;;;;;22.30;16.10;;;;;;;11.97;37.89;100471.78;4905207;29;20732;-79
2022/03/25 08:39:12;;;;;;;26.70;16.60;;;;;;;12.04;37.89;100473.41;4912149;29;20243;-79
2022/03/25 08:41:39;;;;;;;23.63;17.43;;;;;;;12.35;37.74;100472.75;4914887;29;20268;-78
2022/03/25 08:44:06;;;;;;;21.50;15.87;;;;;;;12.38;35.29;100468.81;4909523;29;20238;-78
2022/03/25 08:46:34;;;;;;;19.70;15.40;;;;;;;12.44;35.47;100466.09;4906856;29;20242;-78
2022/03/25 08:49:06;;;;;;;19.80;15.83;;;;;;;12.46;35.92;100458.63;4900834;29;20259;-79
2022/03/25 08:51:32;;;;;;;22.63;16.50;;;;;;;12.71;36.18;100458.75;4909338;29;20302;-79
2022/03/25 08:53:59;;;;;;;20.83;16.33;;;;;;;12.70;35.83;100462.47;4907537;29;20322;-79
2022/03/25 08:56:27;;;;;;;20.43;16.57;;;;;;;12.82;35.59;100465.34;4914966;29;20233;-78
2022/03/25 08:58:58;;;;;;;22.10;15.87;;;;;;;12.74;34.90;100464.53;4906504;29;20234;-79
2022/03/25 09:01:25;;;;;;;21.60;16.20;;;;;;;12.89;34.13;100461.56;4903898;29;20233;-79
2022/03/25 09:03:52;;;;;;;23.70;16.50;;;;;;;13.02;34.50;100458.81;4907577;29;20238;-78
2022/03/25 09:06:19;;;;;;;24.40;17.17;;;;;;;13.21;34.24;100465.16;4916002;29;20266;-79
2022/03/25 09:08:46;;;;;;;22.67;15.70;;;;;;;12.84;33.30;100460.56;4916046;29;20601;-78
2022/03/25 09:11:13;;;;;;;21.60;15.50;;;;;;;13.10;32.61;100458.59;4909418;29;20656;-78
2022/03/25 09:13:40;;;;;;;23.47;16.17;;;;;;;13.14;33.13;100462.53;4908740;29;20593;-78
2022/03/25 09:16:07;;;;;;;29.03;16.50;;;;;;;13.38;34.08;100457.41;4905056;29;20234;-78
2022/03/25 09:18:34;;;;;;;25.07;15.90;;;;;;;13.58;34.48;100466.13;4907945;29;20238;-78
2022/03/25 09:21:01;;;;;;;25.97;16.97;;;;;;;13.55;33.24;100462.03;4909022;29;20653;-78
2022/03/25 09:23:28;;;;;;;22.30;16.80;;;;;;;13.36;33.40;100463.00;4911012;29;20240;-79
2022/03/25 09:25:55;;;;;;;25.87;16.73;;;;;;;13.45;33.40;100466.25;4905906;29;20301;-78
2022/03/25 09:28:22;;;;;;;23.20;15.57;;;;;;;13.83;33.26;100460.75;4904578;29;20237;-78
2022/03/25 09:30:49;;;;;;;23.97;17.13;;;;;;;13.84;32.93;100467.81;4908014;29;20234;-78
2022/03/25 09:33:15;;;;;;;25.47;16.17;;;;;;;13.89;33.09;100463.41;4911598;29;20238;-78
2022/03/25 09:35:44;;;;;;;28.43;18.03;;;;;;;14.05;33.59;100465.53;4906011;29;20242;-78
2022/03/25 09:38:11;;;;;;;25.37;17.70;;;;;;;14.07;33.29;100459.91;4904324;29;20350;-78
2022/03/25 09:40:43;;;;;;;25.13;17.53;;;;;;;14.27;33.29;100460.56;4911734;29;20324;-78
2022/03/25 09:43:11;;;;;;;24.20;16.97;;;;;;;14.19;32.76;100462.69;4906467;29;20355;-78
2022/03/25 09:45:39;;;;;;;26.87;18.67;;;;;;;14.30;32.96;100453.88;4899608;29;20238;-77
2022/03/25 09:48:06;;;;;;;24.93;16.80;;;;;;;14.38;32.56;100454.44;4906457;29;20234;-78
2022/03/25 09:50:39;;;;;;;27.50;17.87;;;;;;;14.61;32.42;100453.75;4910705;29;20245;-78
2022/03/25 09:53:30;;;;;;;24.80;16.80;;;;;;;14.53;31.91;100444.09;4911704;29;20242;-77
2022/03/25 09:55:58;;;;;;;24.13;16.70;;;;;;;14.59;32.05;100441.56;4905920;29;20338;-78
2022/03/25 09:58:28;;;;;;;21.70;16.87;;;;;;;14.83;31.24;100438.75;4908030;29;20245;-77
2022/03/25 10:00:55;;;;;;;28.43;17.23;;;;;;;14.75;31.63;100446.31;4903219;29;20233;-78
2022/03/25 10:03:31;;;;;;;24.20;17.53;;;;;;;15.05;31.66;100436.38;4908889;29;20754;-77
2022/03/25 10:05:59;;;;;;;31.27;20.00;;;;;;;15.00;32.43;100430.84;4904486;29;20257;-78
2022/03/25 10:08:42;;;;;;;25.37;18.40;;;;;;;15.21;31.64;100443.03;4902767;29;20245;-78
2022/03/25 10:11:35;;;;;;;23.80;18.03;;;;;;;15.22;30.46;100436.53;4902311;29;20243;-78
2022/03/25 10:14:27;;;;;;;24.10;18.70;;;;;;;14.99;30.65;100438.13;4905548;29;20322;-77
2022/03/25 10:16:55;;;;;;;27.93;17.83;;;;;;;15.03;30.53;100434.94;4902674;29;20725;-78
2022/03/25 10:19:28;;;;;;;26.83;17.63;;;;;;;15.28;30.42;100428.34;4910336;29;20255;-77
2022/03/25 10:21:59;;;;;;;23.03;18.17;;;;;;;15.48;30.84;100432.63;4904888;29;20236;-78
2022/03/25 10:24:40;;;;;;;26.60;18.53;;;;;;;15.61;30.07;100433.28;4905661;29;20243;-78
2022/03/25 10:27:20;;;;;;;24.90;19.77;;;;;;;15.66;29.76;100419.06;4900721;29;20319;-78
2022/03/25 10:29:47;;;;;;;24.90;18.00;;;;;;;15.79;29.15;100427.75;4903508;29;20243;-78
2022/03/25 10:32:16;;;;;;;25.90;18.27;;;;;;;15.82;28.92;100415.66;4905619;29;20331;-78
2022/03/25 10:34:43;;;;;;;27.07;19.10;;;;;;;15.90;29.45;100418.03;4909236;29;20242;-78
2022/03/25 10:37:14;;;;;;;23.17;18.03;;;;;;;15.97;29.61;100412.47;4910226;29;20245;-78
2022/03/25 10:39:51;;;;;;;26.77;19.37;;;;;;;15.70;29.37;100412.13;4905050;29;20766;-77
2022/03/25 10:42:18;;;;;;;24.27;18.07;;;;;;;15.78;29.24;100415.31;4908170;29;20257;-78
2022/03/25 10:44:45;;;;;;;24.03;16.93;;;;;;;16.06;28.93;100417.28;4916903;29;20318;-77
2022/03/25 10:47:14;;;;;;;25.73;16.73;;;;;;;16.27;28.06;100411.28;4919875;29;20409;-79
2022/03/25 10:49:46;;;;;;;22.63;16.13;;;;;;;16.45;27.93;100410.31;4911476;29;20282;-78
2022/03/25 10:52:24;;;;;;;20.03;16.47;;;;;;;16.38;27.10;100406.09;4913327;29;20545;-78
2022/03/25 10:55:13;;;;;;;24.20;16.77;;;;;;;16.61;26.23;100406.06;4909312;29;20275;-78
2022/03/25 10:57:51;;;;;;;23.17;16.03;;;;;;;16.57;27.42;100404.84;4908873;29;20247;-79
2022/03/25 11:00:19;;;;;;;22.13;17.23;;;;;;;16.70;27.79;100399.22;4913543;29;20731;-78
2022/03/25 11:02:46;;;;;;;18.37;16.00;;;;;;;16.83;27.14;100400.81;4904114;29;20315;-78
2022/03/25 11:05:14;;;;;;;21.00;16.40;;;;;;;16.97;26.70;100400.28;4911220;29;20241;-78
2022/03/25 11:07:43;;;;;;;21.83;16.17;;;;;;;17.08;26.33;100398.56;4910392;29;20720;-78
2022/03/25 11:10:14;;;;;;;22.87;16.73;;;;;;;17.14;25.66;100398.41;4909693;29;20234;-77
2022/03/25 11:12:43;;;;;;;23.03;18.00;;;;;;;16.96;26.21;100404.03;4904354;29;20772;-78
2022/03/25 11:15:11;;;;;;;25.43;19.47;;;;;;;17.00;25.99;100398.94;4912393;29;20350;-79
2022/03/25 11:17:41;;;;;;;24.57;18.70;;;;;;;17.02;26.14;100392.25;4917699;29;20245;-78
2022/03/25 11:20:20;;;;;;;24.60;19.40;;;;;;;17.08;26.40;100385.00;4911634;29;20264;-78
2022/03/25 11:23:09;;;;;;;23.00;18.13;;;;;;;17.18;26.27;100377.91;4913414;29;20290;-79
2022/03/25 11:25:43;;;;;;;22.43;17.40;;;;;;;17.15;26.04;100375.69;4909732;29;20236;-79